sensor_id;sensor_type;location;lat;lon;timestamp;temperature;humidity
69589;SHT31;56792;50.644;17.984;2023-10-13T00:00:26;14.95;83.43
69589;SHT31;56792;50.644;17.984;2023-10-13T00:02:56;14.96;83.45
69589;SHT31;56792;50.644;17.984;2023-10-13T00:05:26;14.96;83.46
69589;SHT31;56792;50.644;17.984;2023-10-13T00:07:57;14.95;83.42
69589;SHT31;56792;50.644;17.984;2023-10-13T00:10:27;14.95;83.41
69589;SHT31;56792;50.644;17.984;2023-10-13T00:12:55;14.94;83.44
69589;SHT31;56792;50.644;17.984;2023-10-13T00:15:38;14.92;83.50
69589;SHT31;56792;50.644;17.984;2023-10-13T00:18:12;14.91;83.50
69589;SHT31;56792;50.644;17.984;2023-10-13T00:20:41;14.89;83.58
69589;SHT31;56792;50.644;17.984;2023-10-13T00:23:15;14.88;83.59
69589;SHT31;56792;50.644;17.984;2023-10-13T00:25:47;14.87;83.59
69589;SHT31;56792;50.644;17.984;2023-10-13T00:28:19;14.88;83.54
69589;SHT31;56792;50.644;17.984;2023-10-13T00:30:50;14.88;83.55
69589;SHT31;56792;50.644;17.984;2023-10-13T00:33:27;14.88;83.50
69589;SHT31;56792;50.644;17.984;2023-10-13T00:35:58;14.89;83.50
69589;SHT31;56792;50.644;17.984;2023-10-13T00:38:27;14.89;83.44
69589;SHT31;56792;50.644;17.984;2023-10-13T00:40:55;14.90;83.40
69589;SHT31;56792;50.644;17.984;2023-10-13T00:43:29;14.90;83.44
69589;SHT31;56792;50.644;17.984;2023-10-13T00:46:01;14.90;83.51
69589;SHT31;56792;50.644;17.984;2023-10-13T00:48:35;14.90;83.57
69589;SHT31;56792;50.644;17.984;2023-10-13T00:51:09;14.90;83.55
69589;SHT31;56792;50.644;17.984;2023-10-13T00:53:44;14.91;83.43
69589;SHT31;56792;50.644;17.984;2023-10-13T00:56:14;14.91;83.40
69589;SHT31;56792;50.644;17.984;2023-10-13T00:58:47;14.91;83.48
69589;SHT31;56792;50.644;17.984;2023-10-13T01:01:18;14.90;83.50
69589;SHT31;56792;50.644;17.984;2023-10-13T01:03:55;14.90;83.50
69589;SHT31;56792;50.644;17.984;2023-10-13T01:06:25;14.89;83.50
69589;SHT31;56792;50.644;17.984;2023-10-13T01:08:58;14.90;83.59
69589;SHT31;56792;50.644;17.984;2023-10-13T01:11:37;14.89;83.60
69589;SHT31;56792;50.644;17.984;2023-10-13T01:14:08;14.90;83.60
69589;SHT31;56792;50.644;17.984;2023-10-13T01:16:38;14.88;83.60
69589;SHT31;56792;50.644;17.984;2023-10-13T01:19:09;14.87;83.60
69589;SHT31;56792;50.644;17.984;2023-10-13T01:21:38;14.88;83.60
69589;SHT31;56792;50.644;17.984;2023-10-13T01:24:07;14.88;83.60
69589;SHT31;56792;50.644;17.984;2023-10-13T01:26:41;14.86;83.60
69589;SHT31;56792;50.644;17.984;2023-10-13T01:29:10;14.86;83.60
69589;SHT31;56792;50.644;17.984;2023-10-13T01:31:38;14.84;83.64
69589;SHT31;56792;50.644;17.984;2023-10-13T01:34:12;14.83;83.70
69589;SHT31;56792;50.644;17.984;2023-10-13T01:36:48;14.83;83.62
69589;SHT31;56792;50.644;17.984;2023-10-13T01:39:17;14.83;83.57
69589;SHT31;56792;50.644;17.984;2023-10-13T01:41:46;14.82;83.51
69589;SHT31;56792;50.644;17.984;2023-10-13T01:44:21;14.80;83.60
69589;SHT31;56792;50.644;17.984;2023-10-13T01:46:49;14.75;83.59
69589;SHT31;56792;50.644;17.984;2023-10-13T01:49:17;14.74;83.53
69589;SHT31;56792;50.644;17.984;2023-10-13T01:51:48;14.71;83.55
69589;SHT31;56792;50.644;17.984;2023-10-13T01:54:16;14.67;83.55
69589;SHT31;56792;50.644;17.984;2023-10-13T01:56:47;14.65;83.53
69589;SHT31;56792;50.644;17.984;2023-10-13T01:59:16;14.62;83.58
69589;SHT31;56792;50.644;17.984;2023-10-13T02:01:45;14.61;83.60
69589;SHT31;56792;50.644;17.984;2023-10-13T02:04:13;14.60;83.61
69589;SHT31;56792;50.644;17.984;2023-10-13T02:06:47;14.59;83.73
69589;SHT31;56792;50.644;17.984;2023-10-13T02:09:15;14.58;83.83
69589;SHT31;56792;50.644;17.984;2023-10-13T02:11:52;14.56;83.91
69589;SHT31;56792;50.644;17.984;2023-10-13T02:14:20;14.55;83.97
69589;SHT31;56792;50.644;17.984;2023-10-13T02:16:51;14.54;84.00
69589;SHT31;56792;50.644;17.984;2023-10-13T02:19:38;14.54;84.05
69589;SHT31;56792;50.644;17.984;2023-10-13T02:22:11;14.51;84.12
69589;SHT31;56792;50.644;17.984;2023-10-13T02:24:51;14.50;84.20
69589;SHT31;56792;50.644;17.984;2023-10-13T02:27:23;14.48;84.27
69589;SHT31;56792;50.644;17.984;2023-10-13T02:29:52;14.47;84.31
69589;SHT31;56792;50.644;17.984;2023-10-13T02:32:24;14.48;84.35
69589;SHT31;56792;50.644;17.984;2023-10-13T02:34:55;14.47;84.40
69589;SHT31;56792;50.644;17.984;2023-10-13T02:37:31;14.46;84.50
69589;SHT31;56792;50.644;17.984;2023-10-13T02:40:01;14.46;84.52
69589;SHT31;56792;50.644;17.984;2023-10-13T02:42:31;14.45;84.58
69589;SHT31;56792;50.644;17.984;2023-10-13T02:44:59;14.45;84.60
69589;SHT31;56792;50.644;17.984;2023-10-13T02:47:29;14.46;84.68
69589;SHT31;56792;50.644;17.984;2023-10-13T02:49:58;14.45;84.71
69589;SHT31;56792;50.644;17.984;2023-10-13T02:52:37;14.45;84.75
69589;SHT31;56792;50.644;17.984;2023-10-13T02:55:07;14.44;84.80
69589;SHT31;56792;50.644;17.984;2023-10-13T02:57:39;14.44;84.80
69589;SHT31;56792;50.644;17.984;2023-10-13T03:00:08;14.46;84.80
69589;SHT31;56792;50.644;17.984;2023-10-13T03:02:38;14.46;84.79
69589;SHT31;56792;50.644;17.984;2023-10-13T03:05:10;14.46;84.73
69589;SHT31;56792;50.644;17.984;2023-10-13T03:07:39;14.45;84.70
69589;SHT31;56792;50.644;17.984;2023-10-13T03:10:09;14.45;84.73
69589;SHT31;56792;50.644;17.984;2023-10-13T03:12:38;14.42;84.75
69589;SHT31;56792;50.644;17.984;2023-10-13T03:15:08;14.39;84.76
69589;SHT31;56792;50.644;17.984;2023-10-13T03:17:40;14.37;84.80
69589;SHT31;56792;50.644;17.984;2023-10-13T03:20:10;14.34;84.69
69589;SHT31;56792;50.644;17.984;2023-10-13T03:22:41;14.28;84.70
69589;SHT31;56792;50.644;17.984;2023-10-13T03:25:11;14.25;84.63
69589;SHT31;56792;50.644;17.984;2023-10-13T03:27:48;14.20;84.55
69589;SHT31;56792;50.644;17.984;2023-10-13T03:30:27;14.15;84.58
69589;SHT31;56792;50.644;17.984;2023-10-13T03:33:03;14.11;84.51
69589;SHT31;56792;50.644;17.984;2023-10-13T03:35:35;14.08;84.58
69589;SHT31;56792;50.644;17.984;2023-10-13T03:38:07;14.05;84.53
69589;SHT31;56792;50.644;17.984;2023-10-13T03:40:54;14.02;84.58
69589;SHT31;56792;50.644;17.984;2023-10-13T03:43:32;13.98;84.52
69589;SHT31;56792;50.644;17.984;2023-10-13T03:46:10;13.96;84.55
69589;SHT31;56792;50.644;17.984;2023-10-13T03:48:39;13.95;84.57
69589;SHT31;56792;50.644;17.984;2023-10-13T03:51:18;13.94;84.50
69589;SHT31;56792;50.644;17.984;2023-10-13T03:53:47;13.94;84.54
69589;SHT31;56792;50.644;17.984;2023-10-13T03:56:19;13.94;84.60
69589;SHT31;56792;50.644;17.984;2023-10-13T03:58:52;13.96;84.67
69589;SHT31;56792;50.644;17.984;2023-10-13T04:01:25;13.99;84.70
69589;SHT31;56792;50.644;17.984;2023-10-13T04:03:58;14.01;84.72
69589;SHT31;56792;50.644;17.984;2023-10-13T04:06:30;14.03;84.77
69589;SHT31;56792;50.644;17.984;2023-10-13T04:09:17;14.04;84.88
69589;SHT31;56792;50.644;17.984;2023-10-13T04:12:06;14.06;85.00
69589;SHT31;56792;50.644;17.984;2023-10-13T04:14:52;14.06;85.02
69589;SHT31;56792;50.644;17.984;2023-10-13T04:17:37;14.06;85.09
69589;SHT31;56792;50.644;17.984;2023-10-13T04:20:10;14.06;85.13
69589;SHT31;56792;50.644;17.984;2023-10-13T04:22:39;14.04;85.20
69589;SHT31;56792;50.644;17.984;2023-10-13T04:25:27;14.02;85.26
69589;SHT31;56792;50.644;17.984;2023-10-13T04:28:01;14.01;85.36
69589;SHT31;56792;50.644;17.984;2023-10-13T04:30:41;13.98;85.47
69589;SHT31;56792;50.644;17.984;2023-10-13T04:33:25;13.95;85.56
69589;SHT31;56792;50.644;17.984;2023-10-13T04:36:17;13.96;85.69
69589;SHT31;56792;50.644;17.984;2023-10-13T04:39:00;13.94;85.76
69589;SHT31;56792;50.644;17.984;2023-10-13T04:41:36;13.94;85.80
69589;SHT31;56792;50.644;17.984;2023-10-13T04:44:08;13.95;85.83
69589;SHT31;56792;50.644;17.984;2023-10-13T04:47:09;13.97;85.89
69589;SHT31;56792;50.644;17.984;2023-10-13T04:49:44;13.96;85.90
69589;SHT31;56792;50.644;17.984;2023-10-13T04:52:18;13.97;85.90
69589;SHT31;56792;50.644;17.984;2023-10-13T04:55:07;13.97;85.93
69589;SHT31;56792;50.644;17.984;2023-10-13T04:57:42;13.98;85.99
69589;SHT31;56792;50.644;17.984;2023-10-13T05:00:19;14.01;85.99
69589;SHT31;56792;50.644;17.984;2023-10-13T05:03:05;14.01;85.96
69589;SHT31;56792;50.644;17.984;2023-10-13T05:05:52;14.01;86.09
69589;SHT31;56792;50.644;17.984;2023-10-13T05:08:34;13.98;86.18
69589;SHT31;56792;50.644;17.984;2023-10-13T05:11:21;13.95;86.20
69589;SHT31;56792;50.644;17.984;2023-10-13T05:14:19;13.91;86.19
69589;SHT31;56792;50.644;17.984;2023-10-13T05:17:05;13.89;86.20
69589;SHT31;56792;50.644;17.984;2023-10-13T05:19:55;13.86;86.19
69589;SHT31;56792;50.644;17.984;2023-10-13T05:22:42;13.84;86.25
69589;SHT31;56792;50.644;17.984;2023-10-13T05:25:28;13.81;86.28
69589;SHT31;56792;50.644;17.984;2023-10-13T05:28:18;13.78;86.30
69589;SHT31;56792;50.644;17.984;2023-10-13T05:31:05;13.77;86.27
69589;SHT31;56792;50.644;17.984;2023-10-13T05:33:52;13.75;86.22
69589;SHT31;56792;50.644;17.984;2023-10-13T05:36:39;13.73;86.24
69589;SHT31;56792;50.644;17.984;2023-10-13T05:39:25;13.74;86.17
69589;SHT31;56792;50.644;17.984;2023-10-13T05:42:12;13.72;86.20
69589;SHT31;56792;50.644;17.984;2023-10-13T05:44:58;13.70;86.20
69589;SHT31;56792;50.644;17.984;2023-10-13T05:47:41;13.71;86.22
69589;SHT31;56792;50.644;17.984;2023-10-13T05:50:13;13.71;86.12
69589;SHT31;56792;50.644;17.984;2023-10-13T05:53:15;13.70;86.23
69589;SHT31;56792;50.644;17.984;2023-10-13T05:56:02;13.72;86.33
69589;SHT31;56792;50.644;17.984;2023-10-13T05:58:49;13.73;86.49
69589;SHT31;56792;50.644;17.984;2023-10-13T06:01:35;13.75;86.53
69589;SHT31;56792;50.644;17.984;2023-10-13T06:04:21;13.76;86.61
69589;SHT31;56792;50.644;17.984;2023-10-13T06:07:08;13.77;86.70
69589;SHT31;56792;50.644;17.984;2023-10-13T06:09:55;13.79;86.70
69589;SHT31;56792;50.644;17.984;2023-10-13T06:12:49;13.82;86.74
69589;SHT31;56792;50.644;17.984;2023-10-13T06:15:36;13.86;86.78
69589;SHT31;56792;50.644;17.984;2023-10-13T06:18:22;13.91;86.82
69589;SHT31;56792;50.644;17.984;2023-10-13T06:21:09;14.06;86.84
69589;SHT31;56792;50.644;17.984;2023-10-13T06:23:55;14.27;86.76
69589;SHT31;56792;50.644;17.984;2023-10-13T06:26:41;14.49;86.69
69589;SHT31;56792;50.644;17.984;2023-10-13T06:29:28;14.72;86.49
69589;SHT31;56792;50.644;17.984;2023-10-13T06:31:57;14.90;86.31
69589;SHT31;56792;50.644;17.984;2023-10-13T06:34:27;15.10;86.12
69589;SHT31;56792;50.644;17.984;2023-10-13T06:37:08;15.32;85.81
69589;SHT31;56792;50.644;17.984;2023-10-13T06:39:48;15.52;85.47
69589;SHT31;56792;50.644;17.984;2023-10-13T06:42:17;15.75;85.26
69589;SHT31;56792;50.644;17.984;2023-10-13T06:44:45;15.97;84.95
69589;SHT31;56792;50.644;17.984;2023-10-13T06:47:14;16.22;84.72
69589;SHT31;56792;50.644;17.984;2023-10-13T06:49:46;16.46;84.33
69589;SHT31;56792;50.644;17.984;2023-10-13T06:52:17;16.70;83.99
69589;SHT31;56792;50.644;17.984;2023-10-13T06:54:45;16.96;83.54
69589;SHT31;56792;50.644;17.984;2023-10-13T06:57:15;17.19;82.99
69589;SHT31;56792;50.644;17.984;2023-10-13T06:59:46;17.39;82.27
69589;SHT31;56792;50.644;17.984;2023-10-13T07:02:15;17.54;81.65
69589;SHT31;56792;50.644;17.984;2023-10-13T07:04:47;17.72;81.28
69589;SHT31;56792;50.644;17.984;2023-10-13T07:07:22;17.95;80.87
69589;SHT31;56792;50.644;17.984;2023-10-13T07:09:51;18.22;80.34
69589;SHT31;56792;50.644;17.984;2023-10-13T07:12:21;18.47;79.79
69589;SHT31;56792;50.644;17.984;2023-10-13T07:14:52;18.69;79.42
69589;SHT31;56792;50.644;17.984;2023-10-13T07:17:36;18.95;78.77
69589;SHT31;56792;50.644;17.984;2023-10-13T07:20:07;19.18;78.38
69589;SHT31;56792;50.644;17.984;2023-10-13T07:22:41;19.39;77.54
69589;SHT31;56792;50.644;17.984;2023-10-13T07:25:20;19.60;77.24
69589;SHT31;56792;50.644;17.984;2023-10-13T07:27:52;19.84;76.94
69589;SHT31;56792;50.644;17.984;2023-10-13T07:30:22;20.04;75.58
69589;SHT31;56792;50.644;17.984;2023-10-13T07:32:52;20.18;74.89
69589;SHT31;56792;50.644;17.984;2023-10-13T07:35:23;20.32;74.30
69589;SHT31;56792;50.644;17.984;2023-10-13T07:37:52;20.50;73.87
69589;SHT31;56792;50.644;17.984;2023-10-13T07:40:21;20.67;73.60
69589;SHT31;56792;50.644;17.984;2023-10-13T07:43:05;20.87;73.03
69589;SHT31;56792;50.644;17.984;2023-10-13T07:45:36;20.98;72.54
69589;SHT31;56792;50.644;17.984;2023-10-13T07:48:07;21.16;72.37
69589;SHT31;56792;50.644;17.984;2023-10-13T07:50:39;21.32;71.48
69589;SHT31;56792;50.644;17.984;2023-10-13T07:53:07;21.41;71.03
69589;SHT31;56792;50.644;17.984;2023-10-13T07:55:46;21.56;70.83
69589;SHT31;56792;50.644;17.984;2023-10-13T07:58:15;21.74;69.94
69589;SHT31;56792;50.644;17.984;2023-10-13T08:00:43;21.84;69.83
69589;SHT31;56792;50.644;17.984;2023-10-13T08:03:19;22.02;69.32
69589;SHT31;56792;50.644;17.984;2023-10-13T08:06:15;22.24;68.92
69589;SHT31;56792;50.644;17.984;2023-10-13T08:08:52;22.43;68.13
69589;SHT31;56792;50.644;17.984;2023-10-13T08:11:25;22.55;67.49
69589;SHT31;56792;50.644;17.984;2023-10-13T08:13:58;22.74;67.43
69589;SHT31;56792;50.644;17.984;2023-10-13T08:16:36;22.93;66.56
69589;SHT31;56792;50.644;17.984;2023-10-13T08:19:18;23.08;65.92
69589;SHT31;56792;50.644;17.984;2023-10-13T08:21:53;23.24;65.28
69589;SHT31;56792;50.644;17.984;2023-10-13T08:24:25;23.40;65.29
69589;SHT31;56792;50.644;17.984;2023-10-13T08:27:16;23.58;64.24
69589;SHT31;56792;50.644;17.984;2023-10-13T08:30:04;23.84;63.51
69589;SHT31;56792;50.644;17.984;2023-10-13T08:32:55;23.87;62.51
69589;SHT31;56792;50.644;17.984;2023-10-13T08:35:25;24.00;62.76
69589;SHT31;56792;50.644;17.984;2023-10-13T08:38:04;24.21;61.72
69589;SHT31;56792;50.644;17.984;2023-10-13T08:40:44;24.28;61.02
69589;SHT31;56792;50.644;17.984;2023-10-13T08:43:54;24.40;60.79
69589;SHT31;56792;50.644;17.984;2023-10-13T08:46:31;24.60;60.14
69589;SHT31;56792;50.644;17.984;2023-10-13T08:49:29;24.73;59.46
69589;SHT31;56792;50.644;17.984;2023-10-13T08:52:07;24.85;58.76
69589;SHT31;56792;50.644;17.984;2023-10-13T08:55:11;25.10;57.13
69589;SHT31;56792;50.644;17.984;2023-10-13T08:57:55;25.71;56.45
69589;SHT31;56792;50.644;17.984;2023-10-13T09:00:29;26.27;54.71
69589;SHT31;56792;50.644;17.984;2023-10-13T09:03:13;26.81;54.22
69589;SHT31;56792;50.644;17.984;2023-10-13T09:05:54;27.41;53.05
69589;SHT31;56792;50.644;17.984;2023-10-13T09:08:32;28.07;50.76
69589;SHT31;56792;50.644;17.984;2023-10-13T09:11:24;29.02;49.71
69589;SHT31;56792;50.644;17.984;2023-10-13T09:13:53;30.15;48.03
69589;SHT31;56792;50.644;17.984;2023-10-13T09:16:21;31.26;45.82
69589;SHT31;56792;50.644;17.984;2023-10-13T09:19:06;32.22;43.61
69589;SHT31;56792;50.644;17.984;2023-10-13T09:21:40;32.84;42.05
69589;SHT31;56792;50.644;17.984;2023-10-13T09:24:20;33.83;41.22
69589;SHT31;56792;50.644;17.984;2023-10-13T09:26:57;34.60;39.59
69589;SHT31;56792;50.644;17.984;2023-10-13T09:29:28;34.85;38.22
69589;SHT31;56792;50.644;17.984;2023-10-13T09:32:05;34.28;37.51
69589;SHT31;56792;50.644;17.984;2023-10-13T09:34:37;33.42;37.56
69589;SHT31;56792;50.644;17.984;2023-10-13T09:37:10;32.44;38.64
69589;SHT31;56792;50.644;17.984;2023-10-13T09:39:46;31.28;39.25
69589;SHT31;56792;50.644;17.984;2023-10-13T09:42:18;30.51;40.38
69589;SHT31;56792;50.644;17.984;2023-10-13T09:44:49;30.30;41.49
69589;SHT31;56792;50.644;17.984;2023-10-13T09:47:21;30.60;41.41
69589;SHT31;56792;50.644;17.984;2023-10-13T09:49:57;31.80;39.95
69589;SHT31;56792;50.644;17.984;2023-10-13T09:52:32;32.89;37.99
69589;SHT31;56792;50.644;17.984;2023-10-13T09:55:05;33.76;36.33
69589;SHT31;56792;50.644;17.984;2023-10-13T09:57:45;34.83;35.75
69589;SHT31;56792;50.644;17.984;2023-10-13T10:00:26;35.74;34.52
69589;SHT31;56792;50.644;17.984;2023-10-13T10:03:15;36.60;34.50
69589;SHT31;56792;50.644;17.984;2023-10-13T10:05:57;37.11;33.20
69589;SHT31;56792;50.644;17.984;2023-10-13T10:08:34;37.07;32.34
69589;SHT31;56792;50.644;17.984;2023-10-13T10:14:13;35.41;34.48
69589;SHT31;56792;50.644;17.984;2023-10-13T10:17:02;34.60;35.09
69589;SHT31;56792;50.644;17.984;2023-10-13T10:19:45;33.64;35.70
69589;SHT31;56792;50.644;17.984;2023-10-13T10:22:25;32.93;36.32
69589;SHT31;56792;50.644;17.984;2023-10-13T10:24:59;32.21;36.77
69589;SHT31;56792;50.644;17.984;2023-10-13T10:27:29;31.65;37.32
69589;SHT31;56792;50.644;17.984;2023-10-13T10:30:00;31.20;37.98
69589;SHT31;56792;50.644;17.984;2023-10-13T10:32:33;31.06;37.71
69589;SHT31;56792;50.644;17.984;2023-10-13T10:35:03;31.00;37.90
69589;SHT31;56792;50.644;17.984;2023-10-13T10:37:40;30.69;38.88
69589;SHT31;56792;50.644;17.984;2023-10-13T10:40:13;30.62;39.20
69589;SHT31;56792;50.644;17.984;2023-10-13T10:42:59;30.71;39.44
69589;SHT31;56792;50.644;17.984;2023-10-13T10:45:34;30.84;39.11
69589;SHT31;56792;50.644;17.984;2023-10-13T10:48:12;31.90;38.78
69589;SHT31;56792;50.644;17.984;2023-10-13T10:50:43;33.19;37.32
69589;SHT31;56792;50.644;17.984;2023-10-13T10:53:20;33.58;36.33
69589;SHT31;56792;50.644;17.984;2023-10-13T10:55:48;34.28;35.60
69589;SHT31;56792;50.644;17.984;2023-10-13T10:58:17;34.71;34.72
69589;SHT31;56792;50.644;17.984;2023-10-13T11:01:04;34.64;35.03
69589;SHT31;56792;50.644;17.984;2023-10-13T11:03:36;34.82;35.01
69589;SHT31;56792;50.644;17.984;2023-10-13T11:06:11;35.35;33.87
69589;SHT31;56792;50.644;17.984;2023-10-13T11:08:44;34.90;33.91
69589;SHT31;56792;50.644;17.984;2023-10-13T11:11:28;34.39;34.04
69589;SHT31;56792;50.644;17.984;2023-10-13T11:14:01;34.21;34.22
69589;SHT31;56792;50.644;17.984;2023-10-13T11:16:46;34.81;34.39
69589;SHT31;56792;50.644;17.984;2023-10-13T11:19:17;35.34;33.59
69589;SHT31;56792;50.644;17.984;2023-10-13T11:21:51;35.52;33.97
69589;SHT31;56792;50.644;17.984;2023-10-13T11:24:21;36.62;32.91
69589;SHT31;56792;50.644;17.984;2023-10-13T11:26:50;38.44;30.99
69589;SHT31;56792;50.644;17.984;2023-10-13T11:29:30;40.00;29.51
69589;SHT31;56792;50.644;17.984;2023-10-13T11:32:00;41.07;28.02
69589;SHT31;56792;50.644;17.984;2023-10-13T11:34:29;40.57;27.57
69589;SHT31;56792;50.644;17.984;2023-10-13T11:37:06;40.01;28.07
69589;SHT31;56792;50.644;17.984;2023-10-13T11:40:01;41.27;26.81
69589;SHT31;56792;50.644;17.984;2023-10-13T11:42:35;41.77;26.65
69589;SHT31;56792;50.644;17.984;2023-10-13T11:45:09;42.45;25.82
69589;SHT31;56792;50.644;17.984;2023-10-13T11:47:54;43.03;25.29
69589;SHT31;56792;50.644;17.984;2023-10-13T11:50:26;43.50;24.41
69589;SHT31;56792;50.644;17.984;2023-10-13T11:53:00;43.47;24.13
69589;SHT31;56792;50.644;17.984;2023-10-13T11:55:33;43.73;23.92
69589;SHT31;56792;50.644;17.984;2023-10-13T11:58:05;43.37;24.04
69589;SHT31;56792;50.644;17.984;2023-10-13T12:00:35;42.13;24.46
69589;SHT31;56792;50.644;17.984;2023-10-13T12:03:27;40.75;25.66
69589;SHT31;56792;50.644;17.984;2023-10-13T12:06:13;40.51;25.73
69589;SHT31;56792;50.644;17.984;2023-10-13T12:08:48;39.59;26.14
69589;SHT31;56792;50.644;17.984;2023-10-13T12:11:18;37.79;27.64
69589;SHT31;56792;50.644;17.984;2023-10-13T12:13:58;36.17;29.52
69589;SHT31;56792;50.644;17.984;2023-10-13T12:16:42;34.53;30.80
69589;SHT31;56792;50.644;17.984;2023-10-13T12:19:15;33.23;32.60
69589;SHT31;56792;50.644;17.984;2023-10-13T12:21:43;32.18;34.28
69589;SHT31;56792;50.644;17.984;2023-10-13T12:24:14;31.39;35.37
69589;SHT31;56792;50.644;17.984;2023-10-13T12:26:56;30.57;35.58
69589;SHT31;56792;50.644;17.984;2023-10-13T12:29:25;29.58;36.99
69589;SHT31;56792;50.644;17.984;2023-10-13T12:31:54;28.80;38.13
69589;SHT31;56792;50.644;17.984;2023-10-13T12:34:34;28.29;39.40
69589;SHT31;56792;50.644;17.984;2023-10-13T12:37:20;27.86;40.34
69589;SHT31;56792;50.644;17.984;2023-10-13T12:40:05;27.61;41.33
69589;SHT31;56792;50.644;17.984;2023-10-13T12:42:54;27.43;42.01
69589;SHT31;56792;50.644;17.984;2023-10-13T12:45:41;27.23;42.77
69589;SHT31;56792;50.644;17.984;2023-10-13T12:48:28;26.99;43.30
69589;SHT31;56792;50.644;17.984;2023-10-13T12:51:16;26.69;43.98
69589;SHT31;56792;50.644;17.984;2023-10-13T12:54:06;26.67;44.37
69589;SHT31;56792;50.644;17.984;2023-10-13T12:56:40;26.83;44.45
69589;SHT31;56792;50.644;17.984;2023-10-13T12:59:09;26.92;44.64
69589;SHT31;56792;50.644;17.984;2023-10-13T13:01:39;26.88;44.78
69589;SHT31;56792;50.644;17.984;2023-10-13T13:04:08;26.72;45.44
69589;SHT31;56792;50.644;17.984;2023-10-13T13:06:38;26.52;45.90
69589;SHT31;56792;50.644;17.984;2023-10-13T13:09:07;26.32;46.11
69589;SHT31;56792;50.644;17.984;2023-10-13T13:11:35;26.17;46.53
69589;SHT31;56792;50.644;17.984;2023-10-13T13:14:06;26.03;46.82
69589;SHT31;56792;50.644;17.984;2023-10-13T13:16:34;26.12;47.00
69589;SHT31;56792;50.644;17.984;2023-10-13T13:19:05;26.10;47.24
69589;SHT31;56792;50.644;17.984;2023-10-13T13:21:36;25.97;47.49
69589;SHT31;56792;50.644;17.984;2023-10-13T13:24:06;25.79;47.76
69589;SHT31;56792;50.644;17.984;2023-10-13T13:26:37;25.55;48.14
69589;SHT31;56792;50.644;17.984;2023-10-13T13:29:06;25.28;48.49
69589;SHT31;56792;50.644;17.984;2023-10-13T13:31:35;25.14;48.99
69589;SHT31;56792;50.644;17.984;2023-10-13T13:34:08;24.95;49.42
69589;SHT31;56792;50.644;17.984;2023-10-13T13:36:38;24.73;49.87
69589;SHT31;56792;50.644;17.984;2023-10-13T13:39:10;24.58;50.47
69589;SHT31;56792;50.644;17.984;2023-10-13T13:41:43;24.47;51.21
69589;SHT31;56792;50.644;17.984;2023-10-13T13:44:11;24.37;51.69
69589;SHT31;56792;50.644;17.984;2023-10-13T13:46:40;24.33;51.96
69589;SHT31;56792;50.644;17.984;2023-10-13T13:49:09;24.28;52.24
69589;SHT31;56792;50.644;17.984;2023-10-13T13:51:45;24.22;52.50
69589;SHT31;56792;50.644;17.984;2023-10-13T13:54:18;24.09;52.65
69589;SHT31;56792;50.644;17.984;2023-10-13T13:56:47;23.93;53.04
69589;SHT31;56792;50.644;17.984;2023-10-13T13:59:15;23.82;53.31
69589;SHT31;56792;50.644;17.984;2023-10-13T14:01:46;23.72;53.64
69589;SHT31;56792;50.644;17.984;2023-10-13T14:04:14;23.63;54.02
69589;SHT31;56792;50.644;17.984;2023-10-13T14:06:43;23.63;54.35
69589;SHT31;56792;50.644;17.984;2023-10-13T14:09:12;23.70;54.25
69589;SHT31;56792;50.644;17.984;2023-10-13T14:11:41;23.70;54.43
69589;SHT31;56792;50.644;17.984;2023-10-13T14:14:28;23.63;54.81
69589;SHT31;56792;50.644;17.984;2023-10-13T14:16:59;23.45;55.14
69589;SHT31;56792;50.644;17.984;2023-10-13T14:19:33;23.29;55.53
69589;SHT31;56792;50.644;17.984;2023-10-13T14:22:06;23.23;55.88
69589;SHT31;56792;50.644;17.984;2023-10-13T14:24:37;23.19;56.14
69589;SHT31;56792;50.644;17.984;2023-10-13T14:27:11;23.15;56.40
69589;SHT31;56792;50.644;17.984;2023-10-13T14:29:43;23.10;56.71
69589;SHT31;56792;50.644;17.984;2023-10-13T14:32:14;23.03;57.09
69589;SHT31;56792;50.644;17.984;2023-10-13T14:34:43;22.95;57.50
69589;SHT31;56792;50.644;17.984;2023-10-13T14:37:14;22.86;57.90
69589;SHT31;56792;50.644;17.984;2023-10-13T14:39:52;22.79;58.15
69589;SHT31;56792;50.644;17.984;2023-10-13T14:42:22;22.72;58.43
69589;SHT31;56792;50.644;17.984;2023-10-13T14:44:52;22.64;58.71
69589;SHT31;56792;50.644;17.984;2023-10-13T14:47:23;22.59;58.94
69589;SHT31;56792;50.644;17.984;2023-10-13T14:49:52;22.56;59.11
69589;SHT31;56792;50.644;17.984;2023-10-13T14:52:22;22.53;59.38
69589;SHT31;56792;50.644;17.984;2023-10-13T14:54:50;22.52;59.57
69589;SHT31;56792;50.644;17.984;2023-10-13T14:57:21;22.53;59.86
69589;SHT31;56792;50.644;17.984;2023-10-13T14:59:52;22.51;60.13
69589;SHT31;56792;50.644;17.984;2023-10-13T15:02:20;22.47;60.40
69589;SHT31;56792;50.644;17.984;2023-10-13T15:04:49;22.44;60.64
69589;SHT31;56792;50.644;17.984;2023-10-13T15:07:17;22.42;60.78
69589;SHT31;56792;50.644;17.984;2023-10-13T15:09:48;22.37;61.07
69589;SHT31;56792;50.644;17.984;2023-10-13T15:12:16;22.32;61.36
69589;SHT31;56792;50.644;17.984;2023-10-13T15:14:46;22.27;61.46
69589;SHT31;56792;50.644;17.984;2023-10-13T15:17:14;22.22;61.63
69589;SHT31;56792;50.644;17.984;2023-10-13T15:19:42;22.16;61.96
69589;SHT31;56792;50.644;17.984;2023-10-13T15:22:10;22.08;62.21
69589;SHT31;56792;50.644;17.984;2023-10-13T15:24:42;22.01;62.58
69589;SHT31;56792;50.644;17.984;2023-10-13T15:27:11;21.92;62.87
69589;SHT31;56792;50.644;17.984;2023-10-13T15:29:41;21.83;63.21
69589;SHT31;56792;50.644;17.984;2023-10-13T15:32:16;21.74;63.44
69589;SHT31;56792;50.644;17.984;2023-10-13T15:35:03;21.67;63.73
69589;SHT31;56792;50.644;17.984;2023-10-13T15:37:38;21.60;63.95
69589;SHT31;56792;50.644;17.984;2023-10-13T15:40:08;21.53;64.20
69589;SHT31;56792;50.644;17.984;2023-10-13T15:42:41;21.48;64.50
69589;SHT31;56792;50.644;17.984;2023-10-13T15:45:11;21.41;64.86
69589;SHT31;56792;50.644;17.984;2023-10-13T15:47:43;21.32;64.99
69589;SHT31;56792;50.644;17.984;2023-10-13T15:50:13;21.27;65.19
69589;SHT31;56792;50.644;17.984;2023-10-13T15:52:45;21.20;65.42
69589;SHT31;56792;50.644;17.984;2023-10-13T15:55:14;21.15;65.64
69589;SHT31;56792;50.644;17.984;2023-10-13T15:57:44;21.07;65.73
69589;SHT31;56792;50.644;17.984;2023-10-13T16:00:18;21.02;65.91
69589;SHT31;56792;50.644;17.984;2023-10-13T16:02:51;20.96;66.18
69589;SHT31;56792;50.644;17.984;2023-10-13T16:05:20;20.89;66.52
69589;SHT31;56792;50.644;17.984;2023-10-13T16:07:50;20.82;66.68